sensor_id;sensor_type;location;lat;lon;timestamp;P1;durP1;ratioP1;P2;durP2;ratioP2
13607;SDS011;6875;50.852;5.672;2023-07-09T00:02:10;9.73;;;5.93;;
13607;SDS011;6875;50.852;5.672;2023-07-09T00:04:37;9.43;;;6.20;;
13607;SDS011;6875;50.852;5.672;2023-07-09T00:07:11;9.53;;;5.57;;
13607;SDS011;6875;50.852;5.672;2023-07-09T00:09:42;8.43;;;5.70;;
13607;SDS011;6875;50.852;5.672;2023-07-09T00:12:10;7.47;;;5.67;;
13607;SDS011;6875;50.852;5.672;2023-07-09T00:14:43;8.10;;;5.90;;
13607;SDS011;6875;50.852;5.672;2023-07-09T00:17:23;8.03;;;5.60;;
13607;SDS011;6875;50.852;5.672;2023-07-09T00:19:52;11.40;;;5.07;;
13607;SDS011;6875;50.852;5.672;2023-07-09T00:22:21;10.23;;;6.00;;
13607;SDS011;6875;50.852;5.672;2023-07-09T00:24:50;8.30;;;5.70;;
13607;SDS011;6875;50.852;5.672;2023-07-09T00:27:17;10.07;;;5.43;;
13607;SDS011;6875;50.852;5.672;2023-07-09T00:29:46;7.30;;;5.30;;
13607;SDS011;6875;50.852;5.672;2023-07-09T00:32:13;11.00;;;5.93;;
13607;SDS011;6875;50.852;5.672;2023-07-09T00:34:45;7.93;;;5.50;;
13607;SDS011;6875;50.852;5.672;2023-07-09T00:37:14;7.70;;;6.00;;
13607;SDS011;6875;50.852;5.672;2023-07-09T00:39:46;8.13;;;6.03;;
13607;SDS011;6875;50.852;5.672;2023-07-09T00:42:13;7.97;;;5.43;;
13607;SDS011;6875;50.852;5.672;2023-07-09T00:44:42;8.07;;;5.50;;
13607;SDS011;6875;50.852;5.672;2023-07-09T00:50:02;7.23;;;5.60;;
13607;SDS011;6875;50.852;5.672;2023-07-09T00:52:35;8.23;;;5.83;;
13607;SDS011;6875;50.852;5.672;2023-07-09T00:55:08;8.77;;;6.13;;
13607;SDS011;6875;50.852;5.672;2023-07-09T00:57:37;12.13;;;6.30;;
13607;SDS011;6875;50.852;5.672;2023-07-09T01:00:08;7.37;;;5.43;;
13607;SDS011;6875;50.852;5.672;2023-07-09T01:02:38;10.87;;;6.07;;
13607;SDS011;6875;50.852;5.672;2023-07-09T01:05:08;9.50;;;6.33;;
13607;SDS011;6875;50.852;5.672;2023-07-09T01:07:37;11.60;;;6.50;;
13607;SDS011;6875;50.852;5.672;2023-07-09T01:10:03;8.83;;;5.90;;
13607;SDS011;6875;50.852;5.672;2023-07-09T01:12:32;8.97;;;5.90;;
13607;SDS011;6875;50.852;5.672;2023-07-09T01:14:58;11.73;;;6.50;;
13607;SDS011;6875;50.852;5.672;2023-07-09T01:17:26;7.20;;;5.67;;
13607;SDS011;6875;50.852;5.672;2023-07-09T01:19:55;9.77;;;5.87;;
13607;SDS011;6875;50.852;5.672;2023-07-09T01:22:24;11.40;;;6.37;;
13607;SDS011;6875;50.852;5.672;2023-07-09T01:24:54;9.20;;;6.27;;
13607;SDS011;6875;50.852;5.672;2023-07-09T01:27:28;8.20;;;5.83;;
13607;SDS011;6875;50.852;5.672;2023-07-09T01:29:58;8.50;;;5.87;;
13607;SDS011;6875;50.852;5.672;2023-07-09T01:32:26;6.50;;;5.50;;
13607;SDS011;6875;50.852;5.672;2023-07-09T01:34:57;9.03;;;5.30;;
13607;SDS011;6875;50.852;5.672;2023-07-09T01:37:31;9.50;;;5.97;;
13607;SDS011;6875;50.852;5.672;2023-07-09T01:39:58;9.10;;;5.77;;
13607;SDS011;6875;50.852;5.672;2023-07-09T01:42:25;8.20;;;5.87;;
13607;SDS011;6875;50.852;5.672;2023-07-09T01:44:55;9.47;;;5.87;;
13607;SDS011;6875;50.852;5.672;2023-07-09T01:47:22;11.67;;;5.70;;
13607;SDS011;6875;50.852;5.672;2023-07-09T01:49:49;9.10;;;5.80;;
13607;SDS011;6875;50.852;5.672;2023-07-09T01:52:16;11.17;;;6.97;;
13607;SDS011;6875;50.852;5.672;2023-07-09T01:54:46;10.40;;;7.10;;
13607;SDS011;6875;50.852;5.672;2023-07-09T01:57:15;8.80;;;6.83;;
13607;SDS011;6875;50.852;5.672;2023-07-09T01:59:48;12.27;;;6.67;;
13607;SDS011;6875;50.852;5.672;2023-07-09T02:02:15;12.93;;;7.90;;
13607;SDS011;6875;50.852;5.672;2023-07-09T02:04:46;13.33;;;8.83;;
13607;SDS011;6875;50.852;5.672;2023-07-09T02:07:16;14.53;;;9.20;;
13607;SDS011;6875;50.852;5.672;2023-07-09T02:09:43;17.90;;;9.57;;
13607;SDS011;6875;50.852;5.672;2023-07-09T02:12:11;12.37;;;9.63;;
13607;SDS011;6875;50.852;5.672;2023-07-09T02:14:39;14.63;;;9.87;;
13607;SDS011;6875;50.852;5.672;2023-07-09T02:17:07;16.33;;;10.33;;
13607;SDS011;6875;50.852;5.672;2023-07-09T02:19:34;15.23;;;9.63;;
13607;SDS011;6875;50.852;5.672;2023-07-09T02:22:01;14.53;;;10.23;;
13607;SDS011;6875;50.852;5.672;2023-07-09T02:24:29;16.63;;;11.07;;
13607;SDS011;6875;50.852;5.672;2023-07-09T02:26:56;14.33;;;10.97;;
13607;SDS011;6875;50.852;5.672;2023-07-09T02:29:25;15.53;;;11.10;;
13607;SDS011;6875;50.852;5.672;2023-07-09T02:31:52;18.10;;;11.37;;
13607;SDS011;6875;50.852;5.672;2023-07-09T02:34:21;14.73;;;11.53;;
13607;SDS011;6875;50.852;5.672;2023-07-09T02:36:50;14.27;;;11.50;;
13607;SDS011;6875;50.852;5.672;2023-07-09T02:39:18;17.60;;;11.50;;
13607;SDS011;6875;50.852;5.672;2023-07-09T02:41:45;16.70;;;11.23;;
13607;SDS011;6875;50.852;5.672;2023-07-09T02:44:13;15.40;;;11.60;;
13607;SDS011;6875;50.852;5.672;2023-07-09T02:46:41;18.70;;;11.17;;
13607;SDS011;6875;50.852;5.672;2023-07-09T02:49:08;16.13;;;12.07;;
13607;SDS011;6875;50.852;5.672;2023-07-09T02:51:36;16.23;;;11.30;;
13607;SDS011;6875;50.852;5.672;2023-07-09T02:54:03;15.73;;;11.27;;
13607;SDS011;6875;50.852;5.672;2023-07-09T02:56:30;15.13;;;11.90;;
13607;SDS011;6875;50.852;5.672;2023-07-09T02:58:57;15.17;;;11.10;;
13607;SDS011;6875;50.852;5.672;2023-07-09T03:01:24;18.10;;;11.53;;
13607;SDS011;6875;50.852;5.672;2023-07-09T03:03:53;15.40;;;11.03;;
13607;SDS011;6875;50.852;5.672;2023-07-09T03:06:20;16.97;;;11.43;;
13607;SDS011;6875;50.852;5.672;2023-07-09T03:08:47;16.63;;;11.70;;
13607;SDS011;6875;50.852;5.672;2023-07-09T03:11:14;16.37;;;11.70;;
13607;SDS011;6875;50.852;5.672;2023-07-09T03:13:42;15.87;;;11.97;;
13607;SDS011;6875;50.852;5.672;2023-07-09T03:16:09;19.03;;;12.50;;
13607;SDS011;6875;50.852;5.672;2023-07-09T03:18:36;16.40;;;12.27;;
13607;SDS011;6875;50.852;5.672;2023-07-09T03:21:04;17.57;;;11.30;;
13607;SDS011;6875;50.852;5.672;2023-07-09T03:23:30;14.83;;;11.97;;
13607;SDS011;6875;50.852;5.672;2023-07-09T03:25:57;18.07;;;12.20;;
13607;SDS011;6875;50.852;5.672;2023-07-09T03:28:25;15.23;;;11.20;;
13607;SDS011;6875;50.852;5.672;2023-07-09T03:30:53;17.73;;;12.10;;
13607;SDS011;6875;50.852;5.672;2023-07-09T03:33:20;14.23;;;11.50;;
13607;SDS011;6875;50.852;5.672;2023-07-09T03:35:47;17.83;;;11.63;;
13607;SDS011;6875;50.852;5.672;2023-07-09T03:38:15;14.40;;;11.90;;
13607;SDS011;6875;50.852;5.672;2023-07-09T03:40:42;16.13;;;11.37;;
13607;SDS011;6875;50.852;5.672;2023-07-09T03:43:09;21.43;;;12.17;;
13607;SDS011;6875;50.852;5.672;2023-07-09T03:45:37;16.87;;;11.27;;
13607;SDS011;6875;50.852;5.672;2023-07-09T03:48:04;14.70;;;11.30;;
13607;SDS011;6875;50.852;5.672;2023-07-09T03:50:31;18.70;;;12.13;;
13607;SDS011;6875;50.852;5.672;2023-07-09T03:52:58;15.13;;;11.50;;
13607;SDS011;6875;50.852;5.672;2023-07-09T03:55:26;16.50;;;10.60;;
13607;SDS011;6875;50.852;5.672;2023-07-09T03:57:53;15.20;;;12.17;;
13607;SDS011;6875;50.852;5.672;2023-07-09T04:00:20;17.40;;;11.43;;
13607;SDS011;6875;50.852;5.672;2023-07-09T04:02:47;18.43;;;11.33;;
13607;SDS011;6875;50.852;5.672;2023-07-09T04:05:14;16.13;;;11.07;;
13607;SDS011;6875;50.852;5.672;2023-07-09T04:07:40;15.17;;;11.60;;
13607;SDS011;6875;50.852;5.672;2023-07-09T04:10:08;16.90;;;11.27;;
13607;SDS011;6875;50.852;5.672;2023-07-09T04:12:36;16.07;;;11.23;;
13607;SDS011;6875;50.852;5.672;2023-07-09T04:15:03;16.83;;;11.57;;
13607;SDS011;6875;50.852;5.672;2023-07-09T04:17:30;15.80;;;11.33;;
13607;SDS011;6875;50.852;5.672;2023-07-09T04:19:57;15.67;;;11.33;;
13607;SDS011;6875;50.852;5.672;2023-07-09T04:22:24;16.87;;;11.87;;
13607;SDS011;6875;50.852;5.672;2023-07-09T04:24:51;13.90;;;11.80;;
13607;SDS011;6875;50.852;5.672;2023-07-09T04:27:20;16.37;;;11.73;;
13607;SDS011;6875;50.852;5.672;2023-07-09T04:29:53;17.30;;;11.37;;
13607;SDS011;6875;50.852;5.672;2023-07-09T04:32:20;15.43;;;10.90;;
13607;SDS011;6875;50.852;5.672;2023-07-09T04:34:47;15.57;;;11.27;;
13607;SDS011;6875;50.852;5.672;2023-07-09T04:37:14;14.47;;;11.40;;
13607;SDS011;6875;50.852;5.672;2023-07-09T04:39:42;14.70;;;11.43;;
13607;SDS011;6875;50.852;5.672;2023-07-09T04:42:10;17.73;;;12.03;;
13607;SDS011;6875;50.852;5.672;2023-07-09T04:44:37;15.90;;;11.67;;
13607;SDS011;6875;50.852;5.672;2023-07-09T04:47:06;19.93;;;12.60;;
13607;SDS011;6875;50.852;5.672;2023-07-09T04:49:33;22.27;;;13.00;;
13607;SDS011;6875;50.852;5.672;2023-07-09T04:52:03;18.37;;;13.03;;
13607;SDS011;6875;50.852;5.672;2023-07-09T04:54:33;17.97;;;13.90;;
13607;SDS011;6875;50.852;5.672;2023-07-09T04:57:00;23.33;;;14.40;;
13607;SDS011;6875;50.852;5.672;2023-07-09T04:59:27;22.07;;;16.27;;
13607;SDS011;6875;50.852;5.672;2023-07-09T05:01:57;20.43;;;16.20;;
13607;SDS011;6875;50.852;5.672;2023-07-09T05:04:25;21.37;;;16.87;;
13607;SDS011;6875;50.852;5.672;2023-07-09T05:06:56;22.80;;;18.87;;
13607;SDS011;6875;50.852;5.672;2023-07-09T05:09:29;27.90;;;19.40;;
13607;SDS011;6875;50.852;5.672;2023-07-09T05:11:55;24.60;;;18.77;;
13607;SDS011;6875;50.852;5.672;2023-07-09T05:14:25;21.07;;;16.77;;
13607;SDS011;6875;50.852;5.672;2023-07-09T05:16:52;21.73;;;17.00;;
13607;SDS011;6875;50.852;5.672;2023-07-09T05:19:22;20.57;;;16.30;;
13607;SDS011;6875;50.852;5.672;2023-07-09T05:21:53;22.73;;;16.63;;
13607;SDS011;6875;50.852;5.672;2023-07-09T05:24:20;22.60;;;16.67;;
13607;SDS011;6875;50.852;5.672;2023-07-09T05:26:48;18.07;;;15.47;;
13607;SDS011;6875;50.852;5.672;2023-07-09T05:29:15;24.20;;;15.87;;
13607;SDS011;6875;50.852;5.672;2023-07-09T05:31:45;20.93;;;15.70;;
13607;SDS011;6875;50.852;5.672;2023-07-09T05:34:12;19.93;;;15.77;;
13607;SDS011;6875;50.852;5.672;2023-07-09T05:36:38;21.57;;;14.30;;
13607;SDS011;6875;50.852;5.672;2023-07-09T05:39:09;18.80;;;14.20;;
13607;SDS011;6875;50.852;5.672;2023-07-09T05:41:37;20.07;;;14.53;;
13607;SDS011;6875;50.852;5.672;2023-07-09T05:44:04;19.13;;;13.63;;
13607;SDS011;6875;50.852;5.672;2023-07-09T05:46:35;19.53;;;13.57;;
13607;SDS011;6875;50.852;5.672;2023-07-09T05:49:03;17.90;;;14.40;;
13607;SDS011;6875;50.852;5.672;2023-07-09T05:51:32;17.97;;;13.87;;
13607;SDS011;6875;50.852;5.672;2023-07-09T05:54:07;19.33;;;13.50;;
13607;SDS011;6875;50.852;5.672;2023-07-09T05:56:38;15.47;;;13.20;;
13607;SDS011;6875;50.852;5.672;2023-07-09T05:59:07;16.43;;;13.00;;
13607;SDS011;6875;50.852;5.672;2023-07-09T06:01:40;17.37;;;11.97;;
13607;SDS011;6875;50.852;5.672;2023-07-09T06:04:06;19.30;;;13.63;;
13607;SDS011;6875;50.852;5.672;2023-07-09T06:06:36;14.07;;;11.47;;
13607;SDS011;6875;50.852;5.672;2023-07-09T06:09:03;14.43;;;11.17;;
13607;SDS011;6875;50.852;5.672;2023-07-09T06:11:33;15.33;;;11.03;;
13607;SDS011;6875;50.852;5.672;2023-07-09T06:14:00;15.73;;;12.07;;
13607;SDS011;6875;50.852;5.672;2023-07-09T06:16:27;13.40;;;11.40;;
13607;SDS011;6875;50.852;5.672;2023-07-09T06:18:54;15.03;;;11.30;;
13607;SDS011;6875;50.852;5.672;2023-07-09T06:21:24;13.43;;;10.80;;
13607;SDS011;6875;50.852;5.672;2023-07-09T06:23:50;15.10;;;10.60;;
13607;SDS011;6875;50.852;5.672;2023-07-09T06:26:17;16.70;;;9.80;;
13607;SDS011;6875;50.852;5.672;2023-07-09T06:28:57;13.50;;;10.83;;
13607;SDS011;6875;50.852;5.672;2023-07-09T06:31:30;15.97;;;11.07;;
13607;SDS011;6875;50.852;5.672;2023-07-09T06:33:57;14.80;;;9.90;;
13607;SDS011;6875;50.852;5.672;2023-07-09T06:36:26;12.67;;;10.07;;
13607;SDS011;6875;50.852;5.672;2023-07-09T06:38:52;13.13;;;9.93;;
13607;SDS011;6875;50.852;5.672;2023-07-09T06:41:19;13.90;;;9.73;;
13607;SDS011;6875;50.852;5.672;2023-07-09T06:43:46;12.27;;;9.13;;
13607;SDS011;6875;50.852;5.672;2023-07-09T06:46:15;11.73;;;8.83;;
13607;SDS011;6875;50.852;5.672;2023-07-09T06:48:41;12.77;;;8.80;;
13607;SDS011;6875;50.852;5.672;2023-07-09T06:51:08;10.40;;;7.93;;
13607;SDS011;6875;50.852;5.672;2023-07-09T06:53:35;12.00;;;7.73;;
13607;SDS011;6875;50.852;5.672;2023-07-09T06:56:02;14.37;;;8.23;;
13607;SDS011;6875;50.852;5.672;2023-07-09T06:58:30;12.40;;;8.67;;
13607;SDS011;6875;50.852;5.672;2023-07-09T07:01:01;11.77;;;8.67;;
13607;SDS011;6875;50.852;5.672;2023-07-09T07:03:31;12.77;;;8.30;;
13607;SDS011;6875;50.852;5.672;2023-07-09T07:05:58;12.87;;;8.97;;
13607;SDS011;6875;50.852;5.672;2023-07-09T07:08:27;11.03;;;8.30;;
13607;SDS011;6875;50.852;5.672;2023-07-09T07:10:54;13.93;;;8.87;;
13607;SDS011;6875;50.852;5.672;2023-07-09T07:13:27;13.23;;;7.57;;
13607;SDS011;6875;50.852;5.672;2023-07-09T07:15:53;9.70;;;7.43;;
13607;SDS011;6875;50.852;5.672;2023-07-09T07:18:21;10.33;;;7.27;;
13607;SDS011;6875;50.852;5.672;2023-07-09T07:20:48;13.10;;;7.03;;
13607;SDS011;6875;50.852;5.672;2023-07-09T07:23:15;10.33;;;6.60;;
13607;SDS011;6875;50.852;5.672;2023-07-09T07:25:42;9.97;;;7.60;;
13607;SDS011;6875;50.852;5.672;2023-07-09T07:28:09;12.20;;;7.73;;
13607;SDS011;6875;50.852;5.672;2023-07-09T07:30:35;13.50;;;7.50;;
13607;SDS011;6875;50.852;5.672;2023-07-09T07:33:02;12.43;;;7.07;;
13607;SDS011;6875;50.852;5.672;2023-07-09T07:35:33;10.80;;;7.13;;
13607;SDS011;6875;50.852;5.672;2023-07-09T07:38:01;9.60;;;6.93;;
13607;SDS011;6875;50.852;5.672;2023-07-09T07:40:28;8.77;;;6.50;;
13607;SDS011;6875;50.852;5.672;2023-07-09T07:42:56;10.57;;;6.80;;
13607;SDS011;6875;50.852;5.672;2023-07-09T07:45:23;11.17;;;5.40;;
13607;SDS011;6875;50.852;5.672;2023-07-09T07:47:49;7.63;;;5.07;;
13607;SDS011;6875;50.852;5.672;2023-07-09T07:50:17;7.10;;;5.20;;
13607;SDS011;6875;50.852;5.672;2023-07-09T07:52:48;5.40;;;4.43;;
13607;SDS011;6875;50.852;5.672;2023-07-09T07:55:15;7.50;;;4.87;;
13607;SDS011;6875;50.852;5.672;2023-07-09T07:57:43;6.90;;;5.40;;
13607;SDS011;6875;50.852;5.672;2023-07-09T08:00:11;7.83;;;5.40;;
13607;SDS011;6875;50.852;5.672;2023-07-09T08:02:38;8.37;;;5.27;;
13607;SDS011;6875;50.852;5.672;2023-07-09T08:05:05;7.93;;;5.60;;
13607;SDS011;6875;50.852;5.672;2023-07-09T08:07:32;7.63;;;5.87;;
13607;SDS011;6875;50.852;5.672;2023-07-09T08:10:00;11.60;;;6.20;;
13607;SDS011;6875;50.852;5.672;2023-07-09T08:12:27;11.00;;;5.83;;
13607;SDS011;6875;50.852;5.672;2023-07-09T08:14:54;9.50;;;5.63;;
13607;SDS011;6875;50.852;5.672;2023-07-09T08:17:20;9.90;;;5.80;;
13607;SDS011;6875;50.852;5.672;2023-07-09T08:19:48;10.10;;;6.03;;
13607;SDS011;6875;50.852;5.672;2023-07-09T08:22:16;9.27;;;5.73;;
13607;SDS011;6875;50.852;5.672;2023-07-09T08:24:45;8.60;;;6.10;;
13607;SDS011;6875;50.852;5.672;2023-07-09T08:27:15;7.23;;;5.73;;
13607;SDS011;6875;50.852;5.672;2023-07-09T08:29:41;7.90;;;5.77;;
13607;SDS011;6875;50.852;5.672;2023-07-09T08:32:11;8.00;;;5.90;;
13607;SDS011;6875;50.852;5.672;2023-07-09T08:34:38;9.77;;;5.90;;
13607;SDS011;6875;50.852;5.672;2023-07-09T08:37:06;7.80;;;5.33;;
13607;SDS011;6875;50.852;5.672;2023-07-09T08:39:33;7.53;;;5.40;;
13607;SDS011;6875;50.852;5.672;2023-07-09T08:42:02;9.47;;;6.10;;
13607;SDS011;6875;50.852;5.672;2023-07-09T08:44:37;9.10;;;5.43;;
13607;SDS011;6875;50.852;5.672;2023-07-09T08:47:12;8.60;;;5.47;;
13607;SDS011;6875;50.852;5.672;2023-07-09T08:49:44;10.07;;;5.33;;
13607;SDS011;6875;50.852;5.672;2023-07-09T08:52:15;7.17;;;5.00;;
13607;SDS011;6875;50.852;5.672;2023-07-09T08:54:47;7.83;;;5.03;;
13607;SDS011;6875;50.852;5.672;2023-07-09T08:57:17;10.13;;;5.53;;
13607;SDS011;6875;50.852;5.672;2023-07-09T08:59:51;7.37;;;5.80;;
13607;SDS011;6875;50.852;5.672;2023-07-09T09:02:25;10.27;;;5.60;;
13607;SDS011;6875;50.852;5.672;2023-07-09T09:04:56;7.00;;;5.93;;
13607;SDS011;6875;50.852;5.672;2023-07-09T09:07:25;10.20;;;6.10;;
13607;SDS011;6875;50.852;5.672;2023-07-09T09:10:00;7.13;;;5.43;;
13607;SDS011;6875;50.852;5.672;2023-07-09T09:12:29;12.97;;;5.10;;
13607;SDS011;6875;50.852;5.672;2023-07-09T09:15:01;8.43;;;5.40;;
13607;SDS011;6875;50.852;5.672;2023-07-09T09:17:30;11.60;;;5.10;;
13607;SDS011;6875;50.852;5.672;2023-07-09T09:19:59;8.03;;;5.10;;
13607;SDS011;6875;50.852;5.672;2023-07-09T09:22:29;7.73;;;5.67;;
13607;SDS011;6875;50.852;5.672;2023-07-09T09:25:03;6.53;;;5.27;;
13607;SDS011;6875;50.852;5.672;2023-07-09T09:27:38;8.63;;;5.17;;
13607;SDS011;6875;50.852;5.672;2023-07-09T09:30:08;6.83;;;5.10;;
13607;SDS011;6875;50.852;5.672;2023-07-09T09:32:41;6.90;;;5.30;;
13607;SDS011;6875;50.852;5.672;2023-07-09T09:35:13;5.83;;;5.07;;
13607;SDS011;6875;50.852;5.672;2023-07-09T09:37:43;7.60;;;5.07;;
13607;SDS011;6875;50.852;5.672;2023-07-09T09:40:11;6.67;;;4.63;;
13607;SDS011;6875;50.852;5.672;2023-07-09T09:42:38;9.63;;;5.50;;
13607;SDS011;6875;50.852;5.672;2023-07-09T09:45:10;7.53;;;5.17;;
13607;SDS011;6875;50.852;5.672;2023-07-09T09:47:38;10.30;;;5.33;;
13607;SDS011;6875;50.852;5.672;2023-07-09T09:50:05;7.60;;;5.20;;
13607;SDS011;6875;50.852;5.672;2023-07-09T09:52:32;11.93;;;5.43;;
13607;SDS011;6875;50.852;5.672;2023-07-09T09:55:02;8.93;;;5.47;;
13607;SDS011;6875;50.852;5.672;2023-07-09T09:57:35;6.60;;;4.65;;
13607;SDS011;6875;50.852;5.672;2023-07-09T10:00:02;8.25;;;5.60;;
13607;SDS011;6875;50.852;5.672;2023-07-09T10:02:38;8.70;;;5.32;;
13607;SDS011;6875;50.852;5.672;2023-07-09T10:05:11;7.85;;;5.40;;
13607;SDS011;6875;50.852;5.672;2023-07-09T10:07:39;9.63;;;4.65;;
13607;SDS011;6875;50.852;5.672;2023-07-09T10:10:11;6.85;;;5.28;;
13607;SDS011;6875;50.852;5.672;2023-07-09T10:12:40;7.65;;;4.80;;
13607;SDS011;6875;50.852;5.672;2023-07-09T10:15:17;5.53;;;4.80;;
13607;SDS011;6875;50.852;5.672;2023-07-09T10:17:56;5.63;;;4.75;;
13607;SDS011;6875;50.852;5.672;2023-07-09T10:20:29;7.35;;;5.00;;
13607;SDS011;6875;50.852;5.672;2023-07-09T10:23:01;7.15;;;5.13;;
13607;SDS011;6875;50.852;5.672;2023-07-09T10:25:34;7.50;;;5.05;;
13607;SDS011;6875;50.852;5.672;2023-07-09T10:31:02;14.13;;;5.50;;
13607;SDS011;6875;50.852;5.672;2023-07-09T10:33:38;7.53;;;4.70;;
13607;SDS011;6875;50.852;5.672;2023-07-09T10:36:23;7.28;;;5.60;;
13607;SDS011;6875;50.852;5.672;2023-07-09T10:38:55;9.35;;;4.97;;
13607;SDS011;6875;50.852;5.672;2023-07-09T10:41:26;7.07;;;5.22;;
13607;SDS011;6875;50.852;5.672;2023-07-09T10:43:56;5.65;;;4.68;;
13607;SDS011;6875;50.852;5.672;2023-07-09T10:46:25;7.18;;;5.45;;
13607;SDS011;6875;50.852;5.672;2023-07-09T10:48:55;7.20;;;4.93;;
13607;SDS011;6875;50.852;5.672;2023-07-09T10:51:24;7.72;;;5.22;;
13607;SDS011;6875;50.852;5.672;2023-07-09T10:53:55;6.93;;;4.80;;
13607;SDS011;6875;50.852;5.672;2023-07-09T10:56:24;9.02;;;5.55;;
13607;SDS011;6875;50.852;5.672;2023-07-09T10:58:53;8.07;;;4.80;;
13607;SDS011;6875;50.852;5.672;2023-07-09T11:01:25;8.93;;;5.25;;
13607;SDS011;6875;50.852;5.672;2023-07-09T11:03:59;8.80;;;5.15;;
13607;SDS011;6875;50.852;5.672;2023-07-09T11:06:33;6.90;;;5.30;;
13607;SDS011;6875;50.852;5.672;2023-07-09T11:09:03;7.35;;;5.43;;
13607;SDS011;6875;50.852;5.672;2023-07-09T11:11:33;9.98;;;6.03;;
13607;SDS011;6875;50.852;5.672;2023-07-09T11:14:02;8.27;;;5.60;;
13607;SDS011;6875;50.852;5.672;2023-07-09T11:16:37;8.50;;;5.07;;
13607;SDS011;6875;50.852;5.672;2023-07-09T11:19:13;7.43;;;5.43;;
13607;SDS011;6875;50.852;5.672;2023-07-09T11:21:44;8.43;;;5.28;;
13607;SDS011;6875;50.852;5.672;2023-07-09T11:24:25;6.57;;;4.75;;
13607;SDS011;6875;50.852;5.672;2023-07-09T11:27:02;6.80;;;5.68;;
13607;SDS011;6875;50.852;5.672;2023-07-09T11:29:29;7.65;;;5.88;;
13607;SDS011;6875;50.852;5.672;2023-07-09T11:32:07;9.48;;;5.65;;
13607;SDS011;6875;50.852;5.672;2023-07-09T11:34:44;7.53;;;5.65;;
13607;SDS011;6875;50.852;5.672;2023-07-09T11:37:13;6.07;;;5.38;;
13607;SDS011;6875;50.852;5.672;2023-07-09T11:39:44;6.80;;;5.45;;
13607;SDS011;6875;50.852;5.672;2023-07-09T11:42:25;7.68;;;5.40;;
13607;SDS011;6875;50.852;5.672;2023-07-09T11:44:54;8.45;;;5.35;;
13607;SDS011;6875;50.852;5.672;2023-07-09T11:47:29;6.32;;;5.70;;
13607;SDS011;6875;50.852;5.672;2023-07-09T11:50:02;11.65;;;5.85;;
13607;SDS011;6875;50.852;5.672;2023-07-09T11:52:33;7.13;;;5.28;;
13607;SDS011;6875;50.852;5.672;2023-07-09T11:55:16;9.57;;;5.65;;
13607;SDS011;6875;50.852;5.672;2023-07-09T11:57:55;8.68;;;5.82;;
13607;SDS011;6875;50.852;5.672;2023-07-09T12:00:23;7.88;;;5.93;;
13607;SDS011;6875;50.852;5.672;2023-07-09T12:02:51;7.70;;;6.70;;
13607;SDS011;6875;50.852;5.672;2023-07-09T12:05:21;9.98;;;6.47;;
13607;SDS011;6875;50.852;5.672;2023-07-09T12:07:53;8.32;;;6.38;;
13607;SDS011;6875;50.852;5.672;2023-07-09T12:10:22;9.43;;;6.88;;
13607;SDS011;6875;50.852;5.672;2023-07-09T12:12:53;9.48;;;7.15;;
13607;SDS011;6875;50.852;5.672;2023-07-09T12:15:22;11.80;;;7.88;;
13607;SDS011;6875;50.852;5.672;2023-07-09T12:17:54;9.70;;;8.23;;
13607;SDS011;6875;50.852;5.672;2023-07-09T12:20:23;12.57;;;9.82;;
13607;SDS011;6875;50.852;5.672;2023-07-09T12:22:49;18.02;;;12.15;;
13607;SDS011;6875;50.852;5.672;2023-07-09T12:25:21;17.30;;;14.40;;
13607;SDS011;6875;50.852;5.672;2023-07-09T12:27:49;17.75;;;14.30;;
13607;SDS011;6875;50.852;5.672;2023-07-09T12:30:17;17.00;;;14.25;;
13607;SDS011;6875;50.852;5.672;2023-07-09T12:32:44;19.13;;;14.52;;
13607;SDS011;6875;50.852;5.672;2023-07-09T12:35:14;17.40;;;15.57;;
13607;SDS011;6875;50.852;5.672;2023-07-09T12:37:43;18.00;;;14.10;;
13607;SDS011;6875;50.852;5.672;2023-07-09T12:40:14;18.30;;;14.55;;
13607;SDS011;6875;50.852;5.672;2023-07-09T12:42:43;18.67;;;15.67;;
13607;SDS011;6875;50.852;5.672;2023-07-09T12:45:14;17.50;;;15.63;;
13607;SDS011;6875;50.852;5.672;2023-07-09T12:47:42;20.95;;;16.35;;
13607;SDS011;6875;50.852;5.672;2023-07-09T12:50:18;19.08;;;14.85;;
